Bissau, Guinea-Bissau

8:49 PM GMT on August 30, 2016 (GMT +0000)
Osvaldo Vieira | | Change Station

Elev 118 ft 11.89 °N, 15.65 °W | Updated 1 hour ago

Scattered Clouds
Scattered Clouds
82 °F
Feels Like 90 °F
N
6
Wind Variable Wind from WSW

Today
High -- | Low -- °F
--% Chance of Precip.
Yesterday
High -- | Low -- °F
Precip. -- in
Pressure 29.86 in
Visibility 6.2 miles
Clouds Scattered Clouds 1400 ft
Heat Index 90 °F
Dew Point 75 °F
Humidity 79%
Rainfall 0.00 in
Snow Depth Not available.
6:52 AM 7:13 PM
Waning Crescent, 2% visible
METAR GGOV 301900Z 24005KT 9999 SCT014TCU 28/24 Q1011 NOSIG
Pressure 29.86 in
Visibility 6.2 miles
Clouds Scattered Clouds 1400 ft
Heat Index 90 °F
Dew Point 75 °F
Humidity 79%
Rainfall 0.00 in
Snow Depth Not available.
6:52 AM 7:13 PM
Waning Crescent, 2% visible
METAR GGOV 301900Z 24005KT 9999 SCT014TCU 28/24 Q1011 NOSIG

10-Day Weather Forecast

No radar image for this location.
×

Almanac

Astronomy

Aug. 30, 2016 Rise Set
Actual Time
Civil Twilight
Nautical Twilight
Astronomical Twilight
Moon
Length of Visible Light
Length of Day
Tomorrow will be .
, % of the Moon is Illuminated

Today's Extremes

Country Highs Country Lows

Community

WunderPhotos

Upload Photos

1,935,889 photos uploaded!

WunderBlog® & News

Nearby

Air Quality

  Air Quality AQ Index Pollutant
Not available.

Snow Depth

Station Depth Elevation

Earthquake Activity

City Distance Mag. Time & Date
Minimum magnitude displayed is 2.5.

Coastal Water Temperatures

Place Temperature

Stations

Nearby Weather Stations

Station Location Temp. Windchill Dew Point Humidity Wind Precip. Elev Updated Type